createdAt,value
2018-12-08T00:02:04.119Z,7.50
2018-12-08T00:07:07.402Z,6.00
2018-12-08T00:12:10.686Z,8.80
2018-12-08T00:17:13.970Z,8.50
2018-12-08T00:22:17.253Z,8.00
2018-12-08T00:48:25.741Z,6.20
2018-12-08T00:53:29.114Z,7.00
2018-12-08T00:58:32.414Z,8.00
2018-12-08T01:03:35.802Z,8.40
2018-12-08T01:08:39.095Z,8.00
2018-12-08T01:13:42.386Z,6.00
2018-12-08T01:18:45.687Z,5.75
2018-12-08T01:23:48.985Z,8.00
2018-12-08T01:28:52.274Z,6.25
2018-12-08T01:33:55.558Z,5.20
2018-12-08T01:38:58.854Z,5.00
2018-12-08T01:44:02.168Z,8.00
2018-12-08T01:49:05.565Z,5.50
2018-12-08T01:54:08.857Z,7.00
2018-12-08T01:59:12.141Z,6.00
2018-12-08T02:04:15.454Z,5.00
2018-12-08T02:09:18.747Z,7.00
2018-12-08T02:14:22.037Z,5.00
2018-12-08T02:19:25.330Z,5.00
2018-12-08T02:24:28.617Z,4.50
2018-12-08T02:29:31.905Z,5.00
2018-12-08T02:34:35.354Z,4.00
2018-12-08T02:39:38.627Z,4.50
2018-12-08T02:44:41.921Z,4.40
2018-12-08T02:49:45.198Z,5.00
2018-12-08T02:54:48.478Z,4.75
2018-12-08T02:59:51.754Z,4.00
2018-12-08T03:04:55.044Z,4.00
2018-12-08T03:09:58.326Z,4.00
2018-12-08T03:15:02.133Z,4.25
2018-12-08T03:20:05.784Z,4.00
2018-12-08T03:25:09.065Z,4.00
2018-12-08T03:30:12.365Z,4.00
2018-12-08T03:35:15.663Z,3.80
2018-12-08T03:40:18.942Z,3.00
2018-12-08T03:45:22.222Z,3.00
2018-12-08T03:50:25.503Z,4.40
2018-12-08T03:55:28.790Z,2.25
2018-12-08T04:00:32.072Z,3.00
2018-12-08T04:05:35.363Z,2.75
2018-12-08T04:10:38.649Z,3.00
2018-12-08T04:15:41.926Z,3.00
2018-12-08T04:20:45.217Z,3.00
2018-12-08T04:25:48.513Z,3.00
2018-12-08T04:30:51.802Z,2.75
2018-12-08T04:35:55.090Z,3.00
2018-12-08T04:40:58.367Z,2.25
2018-12-08T04:46:01.654Z,2.40
2018-12-08T04:51:04.931Z,3.50
2018-12-08T04:56:08.206Z,3.00
2018-12-08T05:01:11.611Z,2.00
2018-12-08T05:06:14.890Z,2.00
2018-12-08T05:11:18.170Z,2.75
2018-12-08T05:16:21.451Z,2.00
2018-12-08T05:21:24.805Z,2.00
2018-12-08T05:26:28.074Z,2.00
2018-12-08T05:31:31.430Z,2.25
2018-12-08T05:36:34.744Z,2.20
2018-12-08T05:41:38.034Z,2.00
2018-12-08T05:46:41.307Z,2.00
2018-12-08T05:51:44.613Z,3.00
2018-12-08T05:56:47.890Z,2.00
2018-12-08T06:01:51.166Z,2.25
2018-12-08T06:06:54.519Z,2.80
2018-12-08T06:11:57.846Z,1.40
2018-12-08T06:17:01.123Z,2.00
2018-12-08T06:22:04.402Z,3.00
2018-12-08T06:28:22.570Z,2.20
2018-12-08T06:33:25.849Z,2.00
2018-12-08T06:38:29.130Z,2.00
2018-12-08T06:43:32.402Z,1.75
2018-12-08T06:48:35.703Z,1.40
2018-12-08T06:53:38.977Z,2.00
2018-12-08T06:58:42.261Z,2.25
2018-12-08T07:03:45.573Z,3.20
2018-12-08T07:08:48.874Z,2.00
2018-12-08T07:13:52.154Z,2.00
2018-12-08T07:18:55.429Z,2.50
2018-12-08T07:23:58.707Z,2.20
2018-12-08T07:29:01.987Z,2.50
2018-12-08T07:34:05.257Z,2.50
2018-12-08T07:39:08.542Z,2.50
2018-12-08T07:44:12.001Z,1.00
2018-12-08T07:49:15.299Z,1.25
2018-12-08T07:54:18.583Z,2.00
2018-12-08T07:59:21.870Z,1.00
2018-12-08T08:04:25.150Z,0.40
2018-12-08T08:09:28.440Z,1.25
2018-12-08T08:14:31.717Z,1.40
2018-12-08T08:19:34.994Z,0.00
2018-12-08T08:24:38.286Z,1.00
2018-12-08T08:29:41.583Z,0.00
2018-12-08T08:34:44.870Z,1.25
2018-12-08T08:39:48.163Z,1.25
2018-12-08T08:44:51.438Z,0.00
2018-12-08T08:49:54.769Z,0.40
2018-12-08T08:54:58.114Z,0.25
2018-12-08T09:00:01.424Z,1.00
2018-12-08T09:05:06.779Z,0.00
2018-12-08T09:10:11.399Z,1.00
2018-12-08T09:15:14.684Z,0.20
2018-12-08T09:20:18.045Z,1.75
2018-12-08T09:25:21.358Z,0.20
2018-12-08T09:30:25.266Z,0.80
2018-12-08T09:35:28.577Z,1.00
2018-12-08T09:40:31.880Z,0.00
2018-12-08T09:45:41.777Z,1.00
2018-12-08T09:50:40.559Z,0.25
2018-12-08T09:55:43.844Z,0.60
2018-12-08T10:00:47.383Z,1.00
2018-12-08T10:05:50.682Z,0.00
2018-12-08T10:10:53.967Z,2.00
2018-12-08T10:15:57.255Z,1.25
2018-12-08T10:21:00.544Z,1.00
2018-12-08T10:26:03.862Z,1.00
2018-12-08T10:31:07.162Z,1.00
2018-12-08T10:36:10.446Z,1.25
2018-12-08T10:41:13.731Z,2.00
2018-12-08T10:46:17.058Z,0.75
2018-12-08T10:51:20.339Z,1.00
2018-12-08T10:56:23.678Z,2.00
2018-12-08T11:01:31.155Z,4.00
2018-12-08T11:06:34.439Z,2.40
2018-12-08T11:11:37.726Z,2.00
2018-12-08T11:16:41.009Z,3.60
2018-12-08T11:21:44.993Z,3.00
2018-12-08T11:26:48.270Z,2.00
2018-12-08T11:31:51.548Z,5.25
2018-12-08T11:36:54.845Z,3.20
2018-12-08T11:41:59.438Z,5.00
2018-12-08T11:47:04.242Z,3.00
2018-12-08T11:52:07.522Z,4.00
2018-12-08T11:57:10.860Z,3.80
2018-12-08T12:02:16.636Z,2.75
2018-12-08T12:07:19.941Z,2.25
2018-12-08T12:12:23.262Z,3.50
2018-12-08T12:17:26.546Z,2.60
2018-12-08T12:22:29.826Z,2.00
2018-12-08T12:27:33.114Z,2.00
2018-12-08T12:32:36.421Z,1.00
2018-12-08T12:37:39.705Z,1.00
2018-12-08T12:42:42.986Z,2.00
2018-12-08T12:47:46.362Z,1.50
2018-12-08T12:52:49.638Z,1.00
2018-12-08T12:57:52.914Z,2.00
2018-12-08T13:02:56.186Z,1.00
2018-12-08T13:07:59.486Z,1.00
2018-12-08T13:13:02.766Z,1.00
2018-12-08T13:18:06.078Z,1.00
2018-12-08T13:23:09.358Z,0.25
2018-12-08T13:28:12.643Z,1.60
2018-12-08T13:33:15.919Z,0.50
2018-12-08T13:38:19.286Z,2.00
2018-12-08T13:43:22.605Z,1.00
2018-12-08T13:48:27.305Z,0.00
2018-12-08T13:53:36.650Z,1.20
2018-12-08T13:58:35.926Z,0.75
2018-12-08T14:03:39.205Z,1.00
2018-12-08T14:08:42.507Z,1.50
2018-12-08T14:13:45.791Z,0.80
2018-12-08T14:18:49.065Z,1.00
2018-12-08T14:23:52.518Z,0.50
2018-12-08T14:28:55.863Z,0.50
2018-12-08T14:33:59.530Z,1.25
2018-12-08T14:39:02.826Z,0.80
2018-12-08T14:44:06.121Z,1.00
2018-12-08T14:49:09.430Z,0.25
2018-12-08T14:54:12.725Z,0.00
2018-12-08T14:59:16.055Z,1.00
2018-12-08T15:04:19.370Z,1.00
2018-12-08T15:09:22.681Z,0.25
2018-12-08T15:14:25.994Z,0.00
2018-12-08T15:19:29.305Z,1.00
2018-12-08T15:24:32.611Z,0.50
2018-12-08T15:29:35.918Z,0.00
2018-12-08T15:34:39.230Z,0.00
2018-12-08T15:39:42.538Z,1.00
2018-12-08T15:44:45.839Z,0.20
2018-12-08T15:49:49.134Z,0.00
2018-12-08T15:54:52.421Z,1.00
2018-12-08T15:59:55.716Z,1.00
2018-12-08T16:04:59.019Z,1.00
2018-12-08T16:10:05.144Z,0.00
2018-12-08T16:15:09.522Z,0.00
2018-12-08T16:20:13.646Z,0.00
2018-12-08T16:25:16.931Z,0.00
2018-12-08T16:30:20.212Z,0.40
2018-12-08T16:35:23.485Z,0.00
2018-12-08T16:40:26.762Z,1.50
2018-12-08T16:45:30.057Z,0.00
2018-12-08T16:50:33.321Z,1.00
2018-12-08T16:55:36.616Z,1.00
2018-12-08T17:00:39.898Z,1.00
2018-12-08T17:05:43.190Z,1.00
2018-12-08T17:10:46.470Z,1.00
2018-12-08T17:15:49.898Z,0.00
2018-12-08T17:20:53.176Z,1.00
2018-12-08T17:25:56.621Z,0.00
2018-12-08T17:30:59.941Z,1.00
2018-12-08T17:36:03.218Z,0.00
2018-12-08T17:41:06.518Z,1.00
2018-12-08T17:46:09.826Z,0.00
2018-12-08T17:51:13.127Z,0.00
2018-12-08T17:56:16.418Z,0.00
2018-12-08T18:01:19.729Z,0.80
2018-12-08T18:06:23.197Z,1.00
2018-12-08T18:11:26.495Z,0.80
2018-12-08T18:16:29.981Z,0.00
2018-12-08T18:21:33.602Z,0.00
2018-12-08T18:26:37.077Z,1.00
2018-12-08T18:31:40.390Z,0.00
2018-12-08T18:36:43.699Z,0.00
2018-12-08T18:41:46.990Z,0.25
2018-12-08T18:46:50.273Z,0.00
2018-12-08T18:51:53.589Z,0.00
2018-12-08T18:56:56.873Z,0.00
2018-12-08T19:02:00.163Z,0.00
2018-12-08T19:07:03.538Z,1.00
2018-12-08T19:12:06.917Z,0.20
2018-12-08T19:17:10.283Z,0.00
2018-12-08T19:22:13.606Z,0.00
2018-12-08T19:27:16.899Z,0.00
2018-12-08T19:32:20.193Z,0.40
2018-12-08T19:37:23.502Z,0.50
2018-12-08T19:42:26.789Z,1.00
2018-12-08T19:47:30.078Z,0.25
2018-12-08T19:52:33.363Z,0.00
2018-12-08T19:57:36.675Z,1.25
2018-12-08T20:02:39.975Z,0.00
2018-12-08T20:07:44.630Z,0.00
2018-12-08T20:12:47.922Z,0.00
2018-12-08T20:17:51.201Z,0.00
2018-12-08T20:22:54.494Z,0.00
2018-12-08T20:27:57.773Z,1.00
2018-12-08T20:33:01.074Z,0.00
2018-12-08T20:38:04.368Z,0.50
2018-12-08T20:43:07.966Z,0.00
2018-12-08T20:48:11.310Z,1.00
2018-12-08T20:53:15.130Z,0.00
2018-12-08T20:58:18.498Z,0.00
2018-12-08T21:03:21.786Z,1.00
2018-12-08T21:08:25.094Z,0.00
2018-12-08T21:13:28.381Z,0.00
2018-12-08T21:18:31.663Z,0.00
2018-12-08T21:23:34.952Z,0.00
2018-12-08T21:28:38.263Z,0.00
2018-12-08T21:33:41.550Z,0.00
2018-12-08T21:38:44.834Z,0.00
2018-12-08T21:43:48.145Z,0.00
2018-12-08T21:48:51.601Z,0.00
2018-12-08T21:53:54.927Z,0.00
2018-12-08T21:58:58.229Z,0.00
2018-12-08T22:04:01.519Z,0.00
2018-12-08T22:09:05.777Z,1.00
2018-12-08T22:14:09.065Z,0.00
2018-12-08T22:19:12.338Z,0.00
2018-12-08T22:24:15.622Z,0.00
2018-12-08T22:29:18.898Z,1.00
2018-12-08T22:34:22.174Z,0.00
2018-12-08T22:39:25.494Z,0.00
2018-12-08T22:44:28.874Z,0.00
2018-12-08T22:49:32.173Z,0.00
2018-12-08T22:54:35.457Z,0.00
2018-12-08T22:59:38.738Z,0.00
2018-12-08T23:04:42.029Z,0.25
2018-12-08T23:09:45.325Z,0.00
2018-12-08T23:14:48.611Z,0.00
2018-12-08T23:19:51.903Z,0.60
2018-12-08T23:24:55.205Z,0.00
2018-12-08T23:29:58.477Z,0.00
2018-12-08T23:35:01.770Z,0.00
2018-12-08T23:40:06.600Z,0.00
2018-12-08T23:45:09.887Z,0.00
2018-12-08T23:50:13.179Z,0.00
2018-12-08T23:55:16.461Z,0.00
